Time;durP1;ratioP1;P1;durP2;ratioP2;P2;SDS_P1;SDS_P2;PMS_P1;PMS_P2;Temp;Humidity;BMP_temperature;BMP_pressure;BME280_temperature;BME280_humidity;BME280_pressure;Samples;Min_cycle;Max_cycle;Signal;HPM_P1;HPM_P2
2023/08/30 00:00:36;;;;;;;5.78;5.28;;;14.00;99.90;;;;;;5054467;28;20175;-51
2023/08/30 00:03:02;;;;;;;5.50;4.55;;;14.00;99.90;;;;;;5052842;28;20183;-51
2023/08/30 00:05:27;;;;;;;5.82;5.20;;;14.00;99.90;;;;;;5053947;28;20168;-52
2023/08/30 00:07:54;;;;;;;6.20;5.60;;;14.00;99.90;;;;;;5053974;28;20536;-52
2023/08/30 00:10:19;;;;;;;7.60;5.20;;;14.00;99.90;;;;;;5053719;28;20674;-47
2023/08/30 00:12:45;;;;;;;6.15;5.38;;;14.00;99.90;;;;;;5053893;28;20199;-47
2023/08/30 00:15:11;;;;;;;5.85;5.20;;;14.10;99.90;;;;;;5053949;28;20179;-52
2023/08/30 00:17:37;;;;;;;5.85;5.35;;;14.10;99.90;;;;;;5053842;28;20579;-53
2023/08/30 00:20:03;;;;;;;7.68;5.53;;;14.10;99.90;;;;;;5053845;28;20234;-50
2023/08/30 00:22:28;;;;;;;6.10;5.55;;;14.10;99.90;;;;;;5053657;28;20258;-51
2023/08/30 00:24:54;;;;;;;7.18;5.25;;;14.10;99.90;;;;;;5053566;28;20176;-52
2023/08/30 00:27:22;;;;;;;6.45;5.85;;;14.10;99.90;;;;;;5053560;28;20167;-52
2023/08/30 00:29:48;;;;;;;6.68;5.43;;;14.20;99.90;;;;;;5053727;28;20190;-49
2023/08/30 00:32:13;;;;;;;5.53;5.03;;;14.10;99.90;;;;;;5053397;28;20171;-47
2023/08/30 00:34:39;;;;;;;6.40;5.50;;;14.10;99.90;;;;;;5053395;28;20556;-50
2023/08/30 00:37:05;;;;;;;6.20;5.60;;;14.10;99.90;;;;;;5053476;28;20175;-52
2023/08/30 00:39:30;;;;;;;6.40;5.80;;;14.10;99.90;;;;;;5053253;28;20182;-49
2023/08/30 00:41:56;;;;;;;7.57;5.47;;;14.10;99.90;;;;;;5053498;28;20179;-52
2023/08/30 00:44:21;;;;;;;6.05;5.45;;;14.00;99.90;;;;;;5053489;28;20229;-50
2023/08/30 00:46:47;;;;;;;5.38;4.93;;;13.90;99.90;;;;;;5053403;28;20202;-50
2023/08/30 00:49:13;;;;;;;6.32;5.30;;;14.00;99.90;;;;;;5053325;28;20167;-48
2023/08/30 00:51:39;;;;;;;6.53;5.63;;;14.00;99.90;;;;;;5053357;28;20187;-50
2023/08/30 00:54:06;;;;;;;6.00;5.40;;;14.10;99.90;;;;;;5053097;28;20199;-52
2023/08/30 00:56:33;;;;;;;6.18;5.55;;;14.10;99.90;;;;;;5053479;28;20167;-51
2023/08/30 00:58:59;;;;;;;6.32;5.68;;;14.10;99.90;;;;;;5053220;28;20186;-51
2023/08/30 01:01:26;;;;;;;5.47;4.95;;;14.00;99.90;;;;;;5052395;28;20167;-53
2023/08/30 01:03:52;;;;;;;5.95;5.20;;;14.00;99.90;;;;;;5053601;28;20226;-53
2023/08/30 01:06:17;;;;;;;5.53;5.00;;;13.90;99.90;;;;;;5053186;28;20207;-51
2023/08/30 01:08:43;;;;;;;5.63;5.10;;;13.80;99.90;;;;;;5053095;28;20199;-52
2023/08/30 01:11:19;;;;;;;6.63;5.10;;;13.70;99.90;;;;;;5053208;28;20171;-51
2023/08/30 01:13:55;;;;;;;5.93;5.32;;;13.80;99.90;;;;;;5053102;28;20286;-52
2023/08/30 01:16:23;;;;;;;5.53;5.00;;;13.70;99.90;;;;;;5053135;28;20174;-49
2023/08/30 01:18:51;;;;;;;6.03;5.43;;;13.70;99.90;;;;;;5052689;28;20205;-51
2023/08/30 01:21:38;;;;;;;6.00;4.97;;;13.70;99.90;;;;;;5052821;28;20182;-50
2023/08/30 01:24:07;;;;;;;5.90;5.30;;;13.70;99.90;;;;;;5053185;28;20175;-52
2023/08/30 01:26:51;;;;;;;6.15;5.53;;;13.70;99.90;;;;;;5053100;28;20173;-52
2023/08/30 01:29:18;;;;;;;5.35;4.85;;;13.70;99.90;;;;;;5052918;28;20690;-51
2023/08/30 01:31:47;;;;;;;6.15;5.55;;;13.70;99.90;;;;;;5052865;28;20640;-48
2023/08/30 01:34:14;;;;;;;5.68;5.10;;;13.60;99.90;;;;;;5051822;28;20583;-52
2023/08/30 01:36:42;;;;;;;5.70;4.88;;;13.70;99.90;;;;;;5052884;28;20578;-52
2023/08/30 01:39:10;;;;;;;5.50;5.00;;;13.70;99.90;;;;;;5053009;28;20574;-50
2023/08/30 01:41:36;;;;;;;5.88;5.38;;;13.70;99.90;;;;;;5052860;28;20262;-49
2023/08/30 01:44:05;;;;;;;6.05;5.10;;;13.70;99.90;;;;;;5052678;28;20262;-52
2023/08/30 01:46:33;;;;;;;6.80;5.53;;;13.70;99.90;;;;;;5051519;28;20183;-48
2023/08/30 01:48:59;;;;;;;6.18;5.28;;;13.60;99.90;;;;;;5052958;28;20245;-50
2023/08/30 01:51:25;;;;;;;5.75;5.10;;;13.70;99.90;;;;;;5052758;28;20199;-47
2023/08/30 01:53:54;;;;;;;6.07;5.38;;;13.70;99.90;;;;;;5052795;28;20266;-51
2023/08/30 01:56:19;;;;;;;5.75;4.95;;;13.60;99.90;;;;;;5052554;28;20186;-52
2023/08/30 01:58:45;;;;;;;5.03;4.63;;;13.60;99.90;;;;;;5052471;28;20180;-49
2023/08/30 02:01:11;;;;;;;6.45;5.20;;;13.60;99.90;;;;;;5052812;28;20179;-50
2023/08/30 02:03:37;;;;;;;5.80;5.20;;;13.50;99.90;;;;;;5052695;28;20186;-51
2023/08/30 02:06:09;;;;;;;5.60;5.10;;;13.60;99.90;;;;;;5052768;28;20172;-54
2023/08/30 02:08:52;;;;;;;6.20;5.60;;;13.50;99.90;;;;;;5052544;28;20258;-49
2023/08/30 02:11:23;;;;;;;5.70;5.05;;;13.40;99.90;;;;;;5052886;28;20254;-51
2023/08/30 02:13:49;;;;;;;5.32;4.93;;;13.40;99.90;;;;;;5056219;28;20199;-53
2023/08/30 02:16:17;;;;;;;6.45;5.32;;;13.40;99.90;;;;;;5056233;28;20262;-52
2023/08/30 02:18:44;;;;;;;6.32;5.40;;;13.30;99.90;;;;;;5056130;28;20180;-53
2023/08/30 02:21:10;;;;;;;5.53;4.95;;;13.40;99.90;;;;;;5055868;28;20227;-53
2023/08/30 02:23:36;;;;;;;5.75;5.25;;;13.30;99.90;;;;;;5056081;28;20179;-51
2023/08/30 02:26:03;;;;;;;7.38;5.22;;;13.30;99.90;;;;;;5055721;28;20241;-51
2023/08/30 02:28:29;;;;;;;6.75;5.22;;;13.30;99.90;;;;;;5055930;28;20172;-49
2023/08/30 02:30:54;;;;;;;6.78;5.68;;;13.40;99.90;;;;;;5055775;28;20600;-51
2023/08/30 02:33:21;;;;;;;8.32;5.90;;;13.40;99.90;;;;;;5055666;28;20230;-48
2023/08/30 02:35:46;;;;;;;6.68;5.30;;;13.50;99.90;;;;;;5055847;28;20203;-51
2023/08/30 02:38:12;;;;;;;9.25;5.43;;;13.60;99.90;;;;;;5055465;28;20190;-51
2023/08/30 02:40:38;;;;;;;6.35;5.70;;;13.70;99.90;;;;;;5055921;28;20619;-50
2023/08/30 02:43:03;;;;;;;6.07;5.50;;;13.70;99.90;;;;;;5055624;28;20175;-52
2023/08/30 02:45:29;;;;;;;6.57;5.97;;;13.60;99.90;;;;;;5055628;28;20180;-52
2023/08/30 02:47:56;;;;;;;6.13;5.53;;;13.70;99.90;;;;;;5055517;28;20532;-49
2023/08/30 02:50:23;;;;;;;6.43;5.70;;;13.80;99.90;;;;;;5055402;28;20592;-51
2023/08/30 02:52:48;;;;;;;8.75;5.82;;;13.80;99.90;;;;;;5053959;28;20560;-51
2023/08/30 02:55:14;;;;;;;8.40;6.03;;;13.80;99.90;;;;;;5055455;28;20175;-48
2023/08/30 02:57:40;;;;;;;6.35;5.55;;;13.90;99.90;;;;;;5055379;28;20179;-52
2023/08/30 03:00:06;;;;;;;6.65;5.93;;;13.80;99.90;;;;;;5055317;28;20680;-51
2023/08/30 03:02:35;;;;;;;7.10;5.45;;;13.80;99.90;;;;;;5055197;28;20179;-52
2023/08/30 03:05:01;;;;;;;6.28;5.35;;;13.80;99.90;;;;;;5055237;28;20253;-51
2023/08/30 03:07:29;;;;;;;8.25;5.70;;;13.90;99.90;;;;;;5054951;28;20222;-52
2023/08/30 03:09:55;;;;;;;7.13;5.80;;;13.90;99.90;;;;;;5055116;28;20207;-51
2023/08/30 03:12:20;;;;;;;6.25;5.65;;;13.90;99.90;;;;;;5055152;28;20260;-53
2023/08/30 03:14:46;;;;;;;7.63;5.97;;;13.90;99.90;;;;;;5055021;28;20249;-51
2023/08/30 03:17:12;;;;;;;7.40;5.32;;;14.10;99.90;;;;;;5054962;28;20211;-52
2023/08/30 03:19:38;;;;;;;6.20;5.55;;;14.10;99.90;;;;;;5054926;28;20259;-52
2023/08/30 03:22:04;;;;;;;6.38;5.20;;;14.00;99.90;;;;;;5054768;28;20624;-53
2023/08/30 03:24:29;;;;;;;6.15;5.32;;;14.10;99.90;;;;;;5054144;28;20184;-49
2023/08/30 03:26:55;;;;;;;6.13;5.53;;;14.20;99.90;;;;;;5054825;28;20217;-49
2023/08/30 03:29:21;;;;;;;5.95;5.35;;;14.10;99.90;;;;;;5054802;28;20176;-49
2023/08/30 03:31:47;;;;;;;7.32;5.45;;;14.20;99.90;;;;;;5054614;28;20632;-53
2023/08/30 03:34:12;;;;;;;6.18;5.50;;;14.20;99.90;;;;;;5054553;28;20671;-52
2023/08/30 03:36:39;;;;;;;8.15;5.80;;;14.10;99.90;;;;;;5054419;28;20229;-49
2023/08/30 03:39:05;;;;;;;6.03;5.32;;;14.00;99.90;;;;;;5054632;28;20536;-50
2023/08/30 03:41:30;;;;;;;6.53;5.47;;;14.00;99.90;;;;;;5054490;28;20187;-52
2023/08/30 03:43:56;;;;;;;6.90;5.63;;;14.10;99.90;;;;;;5054309;28;20649;-51
2023/08/30 03:46:21;;;;;;;7.93;5.30;;;14.10;99.90;;;;;;5054427;28;20176;-49
2023/08/30 03:48:47;;;;;;;8.20;5.40;;;14.10;99.90;;;;;;5054313;28;20171;-50
2023/08/30 03:51:13;;;;;;;6.47;5.40;;;14.10;99.90;;;;;;5054129;28;20180;-49
2023/08/30 03:53:38;;;;;;;7.38;5.55;;;14.10;99.90;;;;;;5054433;28;20243;-50
2023/08/30 03:56:04;;;;;;;7.38;5.70;;;14.20;99.90;;;;;;5054297;28;20182;-48
2023/08/30 03:58:30;;;;;;;7.45;6.00;;;14.10;99.90;;;;;;5054246;28;20176;-49
2023/08/30 04:00:57;;;;;;;6.97;5.38;;;14.10;99.90;;;;;;5054133;28;20183;-51
2023/08/30 04:03:22;;;;;;;7.13;5.30;;;14.20;99.90;;;;;;5053959;28;20175;-50
2023/08/30 04:05:54;;;;;;;6.20;5.40;;;14.30;99.90;;;;;;5053930;28;20225;-52
2023/08/30 04:08:19;;;;;;;6.25;5.60;;;14.30;99.90;;;;;;5053895;28;20180;-51
2023/08/30 04:10:47;;;;;;;6.35;5.75;;;14.20;99.90;;;;;;5054109;28;20262;-49
2023/08/30 04:13:13;;;;;;;6.72;5.47;;;14.30;99.90;;;;;;5053773;28;20207;-52
2023/08/30 04:15:39;;;;;;;7.53;5.85;;;14.40;99.90;;;;;;5053988;28;20701;-49
2023/08/30 04:18:06;;;;;;;6.53;5.63;;;14.40;99.90;;;;;;5053767;28;20168;-48
2023/08/30 04:20:33;;;;;;;7.93;5.88;;;14.40;99.90;;;;;;5053411;28;20321;-50
2023/08/30 04:23:01;;;;;;;6.07;5.45;;;14.40;99.90;;;;;;5052984;28;20175;-51
2023/08/30 04:25:27;;;;;;;6.07;5.47;;;14.50;99.90;;;;;;5051232;28;20640;-51
2023/08/30 04:27:53;;;;;;;5.55;4.97;;;14.40;99.90;;;;;;5051599;28;20179;-51
2023/08/30 04:30:19;;;;;;;7.65;6.15;;;14.30;99.90;;;;;;5051917;28;20179;-50
2023/08/30 04:32:44;;;;;;;6.97;5.63;;;14.30;99.90;;;;;;5051943;28;20702;-52
2023/08/30 04:35:10;;;;;;;6.15;5.07;;;14.10;99.90;;;;;;5051798;28;20266;-48
2023/08/30 04:37:38;;;;;;;6.65;5.68;;;14.10;99.90;;;;;;5051697;28;20179;-50
2023/08/30 04:40:04;;;;;;;8.38;6.22;;;14.10;99.90;;;;;;5053268;28;20209;-48
2023/08/30 04:42:30;;;;;;;7.35;6.03;;;14.00;99.90;;;;;;5053441;28;20186;-48
2023/08/30 04:44:56;;;;;;;8.40;6.35;;;13.90;99.90;;;;;;5053467;28;20176;-51
2023/08/30 04:47:22;;;;;;;7.80;5.75;;;13.90;99.90;;;;;;5053332;28;20178;-50
2023/08/30 04:49:53;;;;;;;9.30;7.18;;;13.80;99.90;;;;;;5053161;28;20309;-49
2023/08/30 04:52:19;;;;;;;6.93;6.22;;;13.90;99.90;;;;;;5053406;28;20336;-48
2023/08/30 04:54:45;;;;;;;8.88;6.45;;;13.90;99.90;;;;;;5053080;28;20767;-48
2023/08/30 04:57:16;;;;;;;7.75;6.40;;;13.90;99.90;;;;;;5053339;28;20225;-47
2023/08/30 04:59:42;;;;;;;7.57;6.78;;;14.00;99.90;;;;;;5053217;28;20175;-52
2023/08/30 05:02:08;;;;;;;7.72;6.93;;;14.00;99.90;;;;;;5052032;28;20582;-47
2023/08/30 05:04:33;;;;;;;8.38;7.18;;;13.90;99.90;;;;;;5052801;28;20648;-50
2023/08/30 05:06:59;;;;;;;7.20;6.50;;;14.00;99.90;;;;;;5052791;28;20248;-52
2023/08/30 05:09:26;;;;;;;7.88;7.07;;;14.00;99.90;;;;;;5052567;28;20180;-50
2023/08/30 05:11:52;;;;;;;8.73;7.53;;;13.90;99.90;;;;;;5052472;28;20183;-50
2023/08/30 05:14:18;;;;;;;7.80;7.10;;;13.90;99.90;;;;;;5052947;28;20199;-50
2023/08/30 05:16:43;;;;;;;8.40;7.13;;;14.00;99.90;;;;;;5052664;28;20871;-50
2023/08/30 05:19:09;;;;;;;8.40;7.03;;;14.10;99.90;;;;;;5052638;28;20775;-52
2023/08/30 05:21:36;;;;;;;8.00;7.22;;;14.20;99.90;;;;;;5051908;28;20668;-52
2023/08/30 05:24:02;;;;;;;7.47;6.78;;;14.20;99.90;;;;;;5053021;28;20578;-48
2023/08/30 05:26:28;;;;;;;7.30;6.70;;;14.00;99.90;;;;;;5052648;28;20213;-50
2023/08/30 05:28:53;;;;;;;7.60;6.90;;;14.00;99.90;;;;;;5053044;28;20179;-52
2023/08/30 05:31:19;;;;;;;7.05;6.45;;;14.00;99.90;;;;;;5052786;28;20179;-49
2023/08/30 05:33:45;;;;;;;7.43;6.60;;;14.00;99.90;;;;;;5052708;28;20210;-51
2023/08/30 05:36:10;;;;;;;7.93;7.13;;;14.00;99.90;;;;;;5052976;28;20201;-48
2023/08/30 05:38:36;;;;;;;7.85;7.15;;;14.10;99.90;;;;;;5052740;28;20167;-48
2023/08/30 05:41:02;;;;;;;7.82;7.03;;;14.00;99.90;;;;;;5052862;28;20221;-53
2023/08/30 05:43:27;;;;;;;9.15;7.18;;;14.00;99.90;;;;;;5052701;28;20179;-50
2023/08/30 05:45:53;;;;;;;8.18;6.65;;;14.00;99.90;;;;;;5051450;28;20181;-50
2023/08/30 05:48:19;;;;;;;7.50;6.55;;;13.90;99.90;;;;;;5056043;28;20640;-52
2023/08/30 05:50:45;;;;;;;8.05;7.25;;;13.90;99.90;;;;;;5056682;28;20174;-51
2023/08/30 05:53:10;;;;;;;8.73;7.63;;;13.90;99.90;;;;;;5056443;28;20692;-50
2023/08/30 05:55:37;;;;;;;8.77;7.68;;;13.90;99.90;;;;;;5056901;28;20175;-51
2023/08/30 05:58:03;;;;;;;12.50;7.70;;;14.00;99.90;;;;;;5056383;28;20183;-51
2023/08/30 06:00:28;;;;;;;8.85;7.82;;;14.00;99.90;;;;;;5056393;28;20177;-52
2023/08/30 06:02:54;;;;;;;10.15;8.02;;;14.00;99.90;;;;;;5056391;28;20183;-52
2023/08/30 06:05:20;;;;;;;8.85;8.02;;;14.10;99.90;;;;;;5056549;28;20531;-52
2023/08/30 06:07:45;;;;;;;9.32;7.88;;;14.10;99.90;;;;;;5056186;28;20175;-51
2023/08/30 06:10:12;;;;;;;8.93;8.07;;;14.10;99.90;;;;;;5056302;28;20257;-50
2023/08/30 06:12:37;;;;;;;8.45;7.57;;;14.20;99.90;;;;;;5054731;28;20176;-50
2023/08/30 06:15:03;;;;;;;9.00;8.10;;;14.30;99.90;;;;;;5056086;28;20187;-49
2023/08/30 06:17:29;;;;;;;8.32;7.53;;;14.30;99.90;;;;;;5055896;28;20203;-49
2023/08/30 06:19:55;;;;;;;9.63;7.97;;;14.40;99.90;;;;;;5055840;28;20231;-48
2023/08/30 06:22:21;;;;;;;9.05;7.50;;;14.40;99.90;;;;;;5056055;28;20265;-49
2023/08/30 06:24:46;;;;;;;8.13;7.45;;;14.40;99.90;;;;;;5055976;28;20183;-49
2023/08/30 06:27:12;;;;;;;9.02;8.20;;;14.40;99.90;;;;;;5055858;28;20171;-50
2023/08/30 06:29:38;;;;;;;8.45;7.63;;;14.40;99.90;;;;;;5055858;28;20203;-51
2023/08/30 06:32:04;;;;;;;8.57;7.78;;;14.40;99.90;;;;;;5055653;28;20175;-48
2023/08/30 06:34:30;;;;;;;9.02;8.13;;;14.40;99.90;;;;;;5055737;28;20215;-47
2023/08/30 06:36:55;;;;;;;8.57;7.82;;;14.50;99.90;;;;;;5055865;28;20183;-47
2023/08/30 06:39:21;;;;;;;7.85;7.05;;;14.50;99.90;;;;;;5055560;28;20248;-51
2023/08/30 06:41:46;;;;;;;8.18;7.38;;;14.40;99.90;;;;;;5055594;28;20171;-47
2023/08/30 06:44:12;;;;;;;8.23;7.43;;;14.40;99.90;;;;;;5055594;28;20183;-51
2023/08/30 06:46:38;;;;;;;7.68;7.07;;;14.40;99.90;;;;;;5055452;28;20179;-51
2023/08/30 06:49:04;;;;;;;8.25;7.47;;;14.40;99.90;;;;;;5055398;28;20175;-49
2023/08/30 06:51:30;;;;;;;8.57;7.45;;;14.50;99.90;;;;;;5055887;28;20175;-50
2023/08/30 06:54:00;;;;;;;8.77;7.82;;;14.40;99.90;;;;;;5055381;28;20545;-51
2023/08/30 06:56:26;;;;;;;8.95;8.07;;;14.60;99.90;;;;;;5055528;28;20199;-51
2023/08/30 06:58:52;;;;;;;9.45;7.43;;;14.60;99.90;;;;;;5054176;28;20175;-50
2023/08/30 07:01:17;;;;;;;9.00;8.10;;;14.70;99.90;;;;;;5055118;28;20176;-49
2023/08/30 07:03:43;;;;;;;8.45;7.60;;;14.60;99.90;;;;;;5055300;28;20233;-50
2023/08/30 07:06:09;;;;;;;8.23;7.43;;;14.60;99.90;;;;;;5055133;28;20171;-47
2023/08/30 07:08:35;;;;;;;8.52;7.55;;;14.70;99.90;;;;;;5055196;28;20178;-51
2023/08/30 07:11:01;;;;;;;7.88;6.70;;;14.70;99.90;;;;;;5055317;28;20171;-51
2023/08/30 07:13:26;;;;;;;7.75;6.97;;;14.70;99.90;;;;;;5054875;28;20249;-51
2023/08/30 07:15:52;;;;;;;7.50;6.80;;;14.70;99.90;;;;;;5054967;28;20187;-50
2023/08/30 07:18:17;;;;;;;7.47;6.82;;;14.80;99.90;;;;;;5055087;28;20666;-52
2023/08/30 07:20:44;;;;;;;7.20;6.43;;;14.80;99.90;;;;;;5054638;28;20219;-49
2023/08/30 07:23:10;;;;;;;7.03;6.32;;;14.80;99.90;;;;;;5054840;28;20226;-52
2023/08/30 07:25:37;;;;;;;6.80;6.10;;;14.80;99.90;;;;;;5054687;28;20180;-50
2023/08/30 07:28:04;;;;;;;5.93;5.47;;;14.90;99.90;;;;;;5054861;28;20168;-50
2023/08/30 07:30:29;;;;;;;7.28;6.07;;;15.00;99.90;;;;;;5054661;28;20213;-49
2023/08/30 07:32:55;;;;;;;6.78;6.18;;;14.90;99.90;;;;;;5054664;28;20215;-46
2023/08/30 07:35:21;;;;;;;6.05;5.55;;;14.90;99.90;;;;;;5054588;28;20601;-52
2023/08/30 07:37:47;;;;;;;7.63;5.75;;;14.90;99.90;;;;;;5054666;28;20218;-52
2023/08/30 07:40:13;;;;;;;6.53;5.93;;;15.00;99.90;;;;;;5054493;28;20171;-50
2023/08/30 07:42:38;;;;;;;6.30;5.53;;;15.10;99.90;;;;;;5054362;28;20198;-51
2023/08/30 07:45:05;;;;;;;6.00;5.50;;;15.20;99.90;;;;;;5054273;28;20179;-48
2023/08/30 07:47:30;;;;;;;7.38;6.63;;;15.30;99.90;;;;;;5054732;28;20674;-48
2023/08/30 07:49:56;;;;;;;6.70;6.07;;;15.30;99.90;;;;;;5054470;28;20207;-47
2023/08/30 07:52:22;;;;;;;7.35;6.63;;;15.40;99.90;;;;;;5054806;28;20501;-51
2023/08/30 07:54:47;;;;;;;6.38;5.78;;;15.30;99.90;;;;;;5054285;28;20199;-46
2023/08/30 07:57:13;;;;;;;6.20;5.65;;;15.40;99.90;;;;;;5054146;28;20182;-51
2023/08/30 07:59:39;;;;;;;6.85;6.13;;;15.50;99.90;;;;;;5054141;28;20691;-50
2023/08/30 08:02:07;;;;;;;6.40;5.80;;;15.40;99.90;;;;;;5054466;28;20207;-51
2023/08/30 08:04:36;;;;;;;6.18;5.57;;;15.50;99.90;;;;;;5054172;28;20167;-49
2023/08/30 08:07:03;;;;;;;6.70;6.18;;;15.50;99.90;;;;;;5054115;28;20636;-49
2023/08/30 08:09:28;;;;;;;7.22;6.53;;;15.70;99.90;;;;;;5053566;28;20176;-50
2023/08/30 08:11:56;;;;;;;7.43;6.72;;;15.80;99.90;;;;;;5053748;28;20190;-49
2023/08/30 08:14:22;;;;;;;6.28;5.78;;;15.90;99.90;;;;;;5053709;28;20551;-51
2023/08/30 08:16:48;;;;;;;6.72;5.72;;;16.00;99.90;;;;;;5053848;28;20213;-50
2023/08/30 08:19:14;;;;;;;7.75;6.15;;;16.00;99.90;;;;;;5053654;28;20755;-52
2023/08/30 08:21:39;;;;;;;6.95;6.35;;;16.10;99.90;;;;;;5053875;28;20509;-48
2023/08/30 08:24:05;;;;;;;6.38;5.78;;;16.10;99.90;;;;;;5053767;28;20182;-52
2023/08/30 08:26:31;;;;;;;6.53;5.90;;;16.20;99.90;;;;;;5053509;28;20528;-49
2023/08/30 08:28:56;;;;;;;6.97;6.30;;;16.20;99.90;;;;;;5053755;28;20182;-47
2023/08/30 08:31:23;;;;;;;7.07;6.40;;;16.20;99.90;;;;;;5053770;28;20167;-51
2023/08/30 08:34:05;;;;;;;6.95;6.35;;;16.30;99.90;;;;;;5053558;28;20242;-50
2023/08/30 08:36:31;;;;;;;7.25;6.65;;;16.40;99.90;;;;;;5053710;28;20183;-52
2023/08/30 08:38:56;;;;;;;7.07;6.47;;;16.20;99.90;;;;;;5053418;28;20301;-50
2023/08/30 08:41:27;;;;;;;6.07;5.57;;;16.20;99.90;;;;;;5053513;28;20176;-51
2023/08/30 08:43:53;;;;;;;6.90;6.30;;;16.30;99.90;;;;;;5053724;28;20178;-50
2023/08/30 08:46:21;;;;;;;7.18;6.50;;;16.30;99.90;;;;;;5053382;28;20183;-48
2023/08/30 08:48:49;;;;;;;7.65;6.95;;;16.40;99.90;;;;;;5053412;28;20254;-51
2023/08/30 08:51:15;;;;;;;7.05;6.45;;;16.50;99.90;;;;;;5053231;28;20632;-51
2023/08/30 08:53:42;;;;;;;8.55;7.75;;;16.50;99.90;;;;;;5053094;28;20707;-51
2023/08/30 08:56:08;;;;;;;8.45;7.60;;;16.70;99.90;;;;;;5053423;28;20187;-51
2023/08/30 08:58:36;;;;;;;8.98;8.18;;;16.70;99.90;;;;;;5053271;28;20214;-48
2023/08/30 09:01:05;;;;;;;9.75;8.75;;;16.90;99.90;;;;;;5053210;28;20190;-50
2023/08/30 09:03:32;;;;;;;9.80;8.90;;;17.10;99.90;;;;;;5053096;28;20186;-50
2023/08/30 09:05:59;;;;;;;9.68;8.77;;;17.20;99.90;;;;;;5053082;28;20176;-49
2023/08/30 09:08:25;;;;;;;9.60;8.75;;;17.40;99.90;;;;;;5053190;28;20628;-49
2023/08/30 09:10:52;;;;;;;10.02;8.68;;;17.50;99.90;;;;;;5053245;28;20221;-50
2023/08/30 09:13:19;;;;;;;10.98;10.00;;;17.60;99.90;;;;;;5053064;28;20267;-49
2023/08/30 09:15:45;;;;;;;9.88;9.05;;;17.70;99.90;;;;;;5053121;28;20198;-51
2023/08/30 09:18:18;;;;;;;9.52;8.63;;;17.80;99.90;;;;;;5051778;28;20171;-51
2023/08/30 09:20:44;;;;;;;9.55;8.65;;;17.80;99.90;;;;;;5053157;28;20223;-48
2023/08/30 09:23:24;;;;;;;9.88;8.93;;;17.70;99.90;;;;;;5056240;28;20192;-46
2023/08/30 09:25:58;;;;;;;9.45;8.60;;;17.80;99.90;;;;;;5057034;28;20233;-51
2023/08/30 09:28:24;;;;;;;10.15;9.02;;;17.80;99.90;;;;;;5057025;28;20163;-51
2023/08/30 09:30:51;;;;;;;10.63;9.52;;;17.80;99.90;;;;;;5056959;28;20175;-52
2023/08/30 09:33:21;;;;;;;9.82;8.90;;;18.00;99.90;;;;;;5056652;28;20234;-48
2023/08/30 09:35:47;;;;;;;10.88;9.75;;;18.40;99.90;;;;;;5057042;28;20207;-50
2023/08/30 09:38:17;;;;;;;10.27;9.20;;;18.70;99.90;;;;;;5056965;28;20233;-51
2023/08/30 09:40:44;;;;;;;8.98;7.95;;;18.70;99.90;;;;;;5056875;28;20281;-50
2023/08/30 09:43:11;;;;;;;7.63;6.75;;;18.70;99.90;;;;;;5056710;28;20195;-47
2023/08/30 09:45:37;;;;;;;7.20;6.50;;;18.60;99.90;;;;;;5056891;28;20175;-52
2023/08/30 09:48:04;;;;;;;7.43;6.72;;;18.40;99.90;;;;;;5056534;28;20177;-51
2023/08/30 09:50:33;;;;;;;6.45;5.80;;;18.20;99.90;;;;;;5056633;28;20602;-50
2023/08/30 09:53:02;;;;;;;6.72;3.88;;;18.00;99.90;;;;;;5056633;28;20171;-52
2023/08/30 09:55:29;;;;;;;8.05;3.55;;;17.90;99.90;;;;;;5056544;28;20175;-52
2023/08/30 09:57:55;;;;;;;4.43;3.42;;;17.90;99.90;;;;;;5055192;28;20176;-50
2023/08/30 10:00:21;;;;;;;7.35;4.13;;;17.90;99.90;;;;;;5056340;28;20179;-51
2023/08/30 10:02:46;;;;;;;6.80;4.25;;;17.80;99.90;;;;;;5056203;28;20248;-52
2023/08/30 10:05:13;;;;;;;5.32;3.92;;;17.90;99.90;;;;;;5055406;28;20258;-52
2023/08/30 10:07:43;;;;;;;10.80;3.30;;;18.10;99.90;;;;;;5055185;28;20264;-52
2023/08/30 10:10:10;;;;;;;4.03;2.70;;;18.20;99.90;;;;;;5056263;28;20671;-51
2023/08/30 10:12:37;;;;;;;6.68;3.03;;;18.10;99.90;;;;;;5056167;28;20175;-51
2023/08/30 10:15:02;;;;;;;4.38;2.58;;;18.00;99.90;;;;;;5055886;28;20214;-52
2023/08/30 10:17:32;;;;;;;4.05;2.72;;;18.20;99.90;;;;;;5056237;28;20175;-49
2023/08/30 10:20:02;;;;;;;7.78;2.78;;;18.60;99.90;;;;;;5055866;28;20250;-50
2023/08/30 10:22:28;;;;;;;6.78;2.70;;;18.70;99.90;;;;;;5055992;28;20225;-52
2023/08/30 10:24:57;;;;;;;5.00;2.53;;;18.10;99.90;;;;;;5056081;28;20186;-49
2023/08/30 10:27:25;;;;;;;6.82;2.67;;;17.70;99.90;;;;;;5055832;28;20170;-50
2023/08/30 10:29:52;;;;;;;8.35;2.67;;;17.50;99.90;;;;;;5055656;28;20249;-51
2023/08/30 10:32:21;;;;;;;5.45;2.53;;;17.40;99.90;;;;;;5055912;28;20174;-52
2023/08/30 10:34:49;;;;;;;6.22;2.67;;;17.20;99.90;;;;;;5055798;28;20260;-51
2023/08/30 10:37:15;;;;;;;6.53;2.95;;;17.40;99.90;;;;;;5054503;28;20252;-49
2023/08/30 10:39:42;;;;;;;6.65;2.58;;;17.70;99.90;;;;;;5055630;28;20171;-51
2023/08/30 10:42:15;;;;;;;5.80;2.80;;;17.90;99.90;;;;;;5055505;28;20645;-51
2023/08/30 10:44:52;;;;;;;6.43;2.60;;;17.70;99.90;;;;;;5055844;28;20194;-50
2023/08/30 10:47:31;;;;;;;6.68;2.63;;;17.50;99.90;;;;;;5055704;28;20175;-51
2023/08/30 10:49:58;;;;;;;5.35;2.10;;;17.40;99.90;;;;;;5055541;28;20214;-50
2023/08/30 10:52:24;;;;;;;6.55;2.63;;;17.30;99.90;;;;;;5055310;28;20247;-52
2023/08/30 10:54:51;;;;;;;6.15;2.50;;;17.30;99.90;;;;;;5055177;28;20207;-49
2023/08/30 10:57:36;;;;;;;5.50;2.58;;;17.40;99.90;;;;;;5055398;28;20647;-52
2023/08/30 11:00:09;;;;;;;5.93;2.22;;;17.40;99.90;;;;;;5055322;28;20217;-47
2023/08/30 11:02:38;;;;;;;9.25;3.05;;;17.30;99.90;;;;;;5055097;28;20203;-48
2023/08/30 11:05:06;;;;;;;5.93;2.70;;;17.40;99.90;;;;;;5054991;28;20182;-52
2023/08/30 11:07:32;;;;;;;7.53;2.55;;;17.70;99.90;;;;;;5055245;28;20176;-48
2023/08/30 11:09:58;;;;;;;4.97;2.35;;;17.60;99.90;;;;;;5055171;28;20695;-50
2023/08/30 11:12:29;;;;;;;7.72;2.85;;;17.50;99.90;;;;;;5054967;28;20172;-47
2023/08/30 11:14:56;;;;;;;7.38;2.58;;;17.70;99.90;;;;;;5054961;28;20199;-47
2023/08/30 11:17:22;;;;;;;8.30;2.38;;;18.00;99.90;;;;;;5054915;28;20176;-48
2023/08/30 11:19:51;;;;;;;5.05;2.30;;;18.00;99.90;;;;;;5054585;28;20227;-51
2023/08/30 11:22:17;;;;;;;8.80;2.60;;;18.00;99.90;;;;;;5055040;28;20171;-52
2023/08/30 11:24:43;;;;;;;5.78;2.15;;;18.20;99.90;;;;;;5054961;28;20206;-52
2023/08/30 11:27:09;;;;;;;5.82;2.17;;;18.30;99.90;;;;;;5054760;28;20186;-47
2023/08/30 11:29:35;;;;;;;5.85;2.22;;;18.40;99.90;;;;;;5054730;28;20178;-50
2023/08/30 11:32:01;;;;;;;6.55;2.33;;;18.50;99.90;;;;;;5054716;28;20555;-49
2023/08/30 11:34:27;;;;;;;6.93;2.45;;;18.80;99.90;;;;;;5054425;28;20206;-48
2023/08/30 11:36:53;;;;;;;6.85;2.47;;;18.90;99.90;;;;;;5054799;28;20175;-47
2023/08/30 11:39:20;;;;;;;8.50;2.33;;;18.50;99.90;;;;;;5054619;28;20175;-52
2023/08/30 11:41:46;;;;;;;4.53;2.03;;;18.70;99.90;;;;;;5054353;28;20171;-50
2023/08/30 11:44:12;;;;;;;8.57;2.35;;;18.70;99.90;;;;;;5053673;28;20186;-49
2023/08/30 11:46:38;;;;;;;10.43;2.58;;;18.60;99.90;;;;;;5054330;28;20168;-48
2023/08/30 11:49:04;;;;;;;7.00;2.42;;;18.40;99.90;;;;;;5054170;28;20270;-48
2023/08/30 11:51:30;;;;;;;4.65;2.00;;;18.30;99.90;;;;;;5054459;28;20635;-48
2023/08/30 11:53:57;;;;;;;5.90;2.10;;;18.30;99.90;;;;;;5054245;28;20215;-49
2023/08/30 11:56:23;;;;;;;6.18;2.47;;;18.40;99.90;;;;;;5054231;28;20179;-47
2023/08/30 11:58:49;;;;;;;6.65;2.30;;;18.70;99.90;;;;;;5054028;28;20604;-50
2023/08/30 12:01:15;;;;;;;5.38;2.33;;;19.00;99.90;;;;;;5054132;28;20199;-50
2023/08/30 12:03:41;;;;;;;7.20;2.00;;;19.10;99.90;;;;;;5053969;28;20239;-47
2023/08/30 12:06:14;;;;;;;5.78;2.00;;;19.10;99.90;;;;;;5054160;28;20192;-47
2023/08/30 12:08:39;;;;;;;9.20;2.20;;;18.90;99.90;;;;;;5054397;28;20171;-49
2023/08/30 12:11:05;;;;;;;6.25;1.90;;;18.30;99.90;;;;;;5053982;28;20693;-50
2023/08/30 12:13:34;;;;;;;5.50;1.90;;;18.20;99.90;;;;;;5054008;28;20336;-50
2023/08/30 12:16:02;;;;;;;4.30;2.00;;;18.40;99.90;;;;;;5053697;28;20655;-51
2023/08/30 12:18:32;;;;;;;5.80;1.73;;;18.40;99.90;;;;;;5053859;28;20183;-47
2023/08/30 12:21:02;;;;;;;3.38;2.15;;;18.10;99.90;;;;;;5053998;28;20300;-49
2023/08/30 12:23:32;;;;;;;5.05;1.80;;;18.10;99.90;;;;;;5053736;28;20201;-51
2023/08/30 12:26:04;;;;;;;5.72;1.80;;;18.20;99.90;;;;;;5053669;28;20186;-49
2023/08/30 12:28:31;;;;;;;4.50;1.50;;;18.60;99.90;;;;;;5053557;28;20175;-50
2023/08/30 12:30:57;;;;;;;3.92;1.52;;;18.80;99.90;;;;;;5053826;28;20174;-47
2023/08/30 12:33:25;;;;;;;4.63;1.58;;;19.10;99.90;;;;;;5053539;28;20199;-51
2023/08/30 12:35:51;;;;;;;5.45;1.67;;;19.10;99.90;;;;;;5053543;28;20175;-48
2023/08/30 12:38:17;;;;;;;5.38;1.70;;;18.60;99.90;;;;;;5052300;28;20202;-52
2023/08/30 12:40:51;;;;;;;4.03;1.42;;;18.50;99.90;;;;;;5053415;28;20628;-49
2023/08/30 12:43:17;;;;;;;7.78;2.10;;;18.60;99.90;;;;;;5053253;28;20175;-49